createdAt,value
2023-02-14T00:00:35.644Z,443.1
2023-02-14T00:01:37.884Z,443.1
2023-02-14T00:02:40.855Z,443.4
2023-02-14T00:03:43.415Z,443.5
2023-02-14T00:04:46.002Z,443.2
2023-02-14T00:05:48.527Z,443.7
2023-02-14T00:06:51.058Z,443.5
2023-02-14T00:07:53.842Z,443.9
2023-02-14T00:08:56.079Z,443.6
2023-02-14T00:09:58.654Z,443.7
2023-02-14T00:11:02.099Z,443.4
2023-02-14T00:12:04.338Z,443.1
2023-02-14T00:13:06.560Z,443.4
2023-02-14T00:14:09.051Z,443.2
2023-02-14T00:15:11.267Z,443.1
2023-02-14T00:16:14.175Z,443.3
2023-02-14T00:17:16.712Z,443.7
2023-02-14T00:19:24.192Z,443.8
2023-02-14T00:20:26.146Z,443.4
2023-02-14T00:21:28.670Z,443.3
2023-02-14T00:22:31.171Z,443
2023-02-14T00:23:33.376Z,442.9
2023-02-14T00:24:35.349Z,442.6
2023-02-14T00:25:37.915Z,442.9
2023-02-14T00:26:40.431Z,442.8
2023-02-14T00:27:42.939Z,442.8
2023-02-14T00:28:45.227Z,442.8
2023-02-14T00:29:47.832Z,442.7
2023-02-14T00:30:50.363Z,442.9
2023-02-14T00:31:53.337Z,442.6
2023-02-14T00:32:55.854Z,442.5
2023-02-14T00:33:58.373Z,442.5
2023-02-14T00:35:00.658Z,442.8
2023-02-14T00:36:03.152Z,442.7
2023-02-14T00:37:05.586Z,442.3
2023-02-14T00:38:08.111Z,442.4
2023-02-14T00:39:10.490Z,442.3
2023-02-14T00:40:12.734Z,442.3
2023-02-14T00:41:15.291Z,442.6
2023-02-14T00:42:17.534Z,442.4
2023-02-14T00:43:19.773Z,442.7
2023-02-14T00:44:22.297Z,441.9
2023-02-14T00:45:25.027Z,442
2023-02-14T00:46:27.298Z,441.7
2023-02-14T00:47:29.645Z,442.1
2023-02-14T00:48:32.151Z,442
2023-02-14T00:49:34.661Z,442
2023-02-14T00:50:36.870Z,441.9
2023-02-14T00:51:39.366Z,442.2
2023-02-14T00:52:41.878Z,441.9
2023-02-14T00:53:44.402Z,442
2023-02-14T00:54:46.952Z,442
2023-02-14T00:55:49.231Z,442.3
2023-02-14T00:56:51.239Z,442.4
2023-02-14T00:57:53.479Z,442.6
2023-02-14T00:58:56.052Z,443.1
2023-02-14T00:59:58.558Z,443
2023-02-14T01:01:02.899Z,443.3
2023-02-14T01:02:05.830Z,443.3
2023-02-14T01:03:08.533Z,443
2023-02-14T01:04:11.024Z,443.2
2023-02-14T01:05:13.265Z,443.1
2023-02-14T01:06:15.789Z,442.9
2023-02-14T01:07:18.300Z,442.3
2023-02-14T01:08:20.807Z,442.5
2023-02-14T01:09:22.763Z,442.3
2023-02-14T01:10:24.992Z,441.4
2023-02-14T01:11:30.851Z,441.7
2023-02-14T01:12:33.396Z,441.5
2023-02-14T01:13:35.912Z,441.8
2023-02-14T01:14:38.394Z,441.8
2023-02-14T01:15:40.897Z,441.6
2023-02-14T01:16:43.396Z,441.7
2023-02-14T01:17:45.782Z,441.4
2023-02-14T01:18:48.406Z,441.5
2023-02-14T01:19:50.640Z,441.4
2023-02-14T01:20:52.859Z,441.8
2023-02-14T01:21:54.836Z,441.5
2023-02-14T01:22:57.047Z,441.7
2023-02-14T01:23:59.251Z,442.1
2023-02-14T01:25:01.741Z,442.3
2023-02-14T01:26:04.280Z,442.9
2023-02-14T01:27:06.480Z,442.9
2023-02-14T01:28:08.502Z,442.9
2023-02-14T01:29:11.010Z,443.1
2023-02-14T01:30:13.939Z,442.8
2023-02-14T01:31:17.305Z,443
2023-02-14T01:32:20.342Z,442.8
2023-02-14T01:33:22.952Z,442.7
2023-02-14T01:34:25.568Z,442.6
2023-02-14T01:35:27.843Z,442.1
2023-02-14T01:36:30.354Z,442.3
2023-02-14T01:37:32.865Z,442.5
2023-02-14T01:38:35.084Z,442.8
2023-02-14T01:39:37.575Z,442.9
2023-02-14T01:40:39.795Z,442.8
2023-02-14T01:41:42.327Z,442.9
2023-02-14T01:42:44.546Z,443.3
2023-02-14T01:43:46.848Z,443
2023-02-14T01:44:49.061Z,442.5
2023-02-14T01:45:51.792Z,442.4
2023-02-14T01:46:54.330Z,442.3
2023-02-14T01:47:56.842Z,442.3
2023-02-14T01:48:59.090Z,442.3
2023-02-14T01:50:01.441Z,442
2023-02-14T01:51:04.292Z,442.3
2023-02-14T01:52:06.513Z,442.4
2023-02-14T01:53:09.035Z,442.5
2023-02-14T01:54:10.954Z,442.4
2023-02-14T01:55:12.944Z,442.4
2023-02-14T01:56:15.473Z,442.5
2023-02-14T01:57:17.732Z,442.5
2023-02-14T01:58:19.953Z,442.7
2023-02-14T01:59:22.246Z,442.7
2023-02-14T02:00:24.742Z,442.9
2023-02-14T02:01:27.805Z,442.6
2023-02-14T02:02:30.680Z,442.8
2023-02-14T02:03:33.185Z,443
2023-02-14T02:04:35.673Z,443
2023-02-14T02:05:38.305Z,443
2023-02-14T02:06:40.802Z,442.5
2023-02-14T02:07:43.293Z,442.5
2023-02-14T02:08:45.249Z,442.2
2023-02-14T02:09:47.482Z,442
2023-02-14T02:10:49.984Z,441.9
2023-02-14T02:11:52.216Z,441.9
2023-02-14T02:12:54.877Z,441.9
2023-02-14T02:13:57.380Z,442.5
2023-02-14T02:15:00.017Z,441.8
2023-02-14T02:16:01.963Z,442.2
2023-02-14T02:17:04.604Z,442.5
2023-02-14T02:18:07.108Z,442.6
2023-02-14T02:19:09.320Z,442.6
2023-02-14T02:20:11.857Z,442.5
2023-02-14T02:21:14.198Z,442.9
2023-02-14T02:22:16.441Z,442.8
2023-02-14T02:23:18.946Z,442.6
2023-02-14T02:24:21.436Z,442.2
2023-02-14T02:25:23.952Z,441.7
2023-02-14T02:26:26.442Z,442
2023-02-14T02:27:28.647Z,442.1
2023-02-14T02:28:31.144Z,442.4
2023-02-14T02:29:33.703Z,442.5
2023-02-14T02:30:37.518Z,442.5
2023-02-14T02:31:40.740Z,442.7
2023-02-14T02:32:42.752Z,442.3
2023-02-14T02:33:44.963Z,442.6
2023-02-14T02:34:47.490Z,442.8
2023-02-14T02:35:49.717Z,443.1
2023-02-14T02:36:52.299Z,442.9
2023-02-14T02:37:54.559Z,443.4
2023-02-14T02:38:56.530Z,443.2
2023-02-14T02:39:58.501Z,443.5
2023-02-14T02:41:02.699Z,443.4
2023-02-14T02:42:05.183Z,443.5
2023-02-14T02:43:07.681Z,443.2
2023-02-14T02:44:10.226Z,443.2
2023-02-14T02:45:12.711Z,443.1
2023-02-14T02:46:15.770Z,443.6
2023-02-14T02:47:17.989Z,443.3
2023-02-14T02:48:20.505Z,443.9
2023-02-14T02:49:22.713Z,443.9
2023-02-14T02:50:25.233Z,443.6
2023-02-14T02:51:27.457Z,443.9
2023-02-14T02:52:29.757Z,444.3
2023-02-14T02:53:32.272Z,444.4
2023-02-14T02:54:34.773Z,444.3
2023-02-14T02:55:37.270Z,444.6
2023-02-14T02:56:39.239Z,444.5
2023-02-14T02:57:41.729Z,444.2
2023-02-14T02:58:43.391Z,445
2023-02-14T02:59:45.631Z,444.9
2023-02-14T03:00:47.867Z,445.3
2023-02-14T03:01:50.920Z,445.5
2023-02-14T03:02:53.418Z,445.3
2023-02-14T03:03:55.638Z,444.9
2023-02-14T03:04:58.650Z,444.6
2023-02-14T03:06:00.900Z,444.4
2023-02-14T03:07:03.399Z,444.4
2023-02-14T03:08:05.999Z,444.8
2023-02-14T03:09:08.206Z,444.5
2023-02-14T03:10:10.729Z,444.6
2023-02-14T03:11:13.216Z,444.7
2023-02-14T03:12:15.411Z,445.3
2023-02-14T03:13:17.623Z,445.2
2023-02-14T03:14:19.814Z,445.3
2023-02-14T03:15:22.050Z,445.7
2023-02-14T03:16:24.014Z,445.4
2023-02-14T03:17:26.305Z,445.2
2023-02-14T03:18:28.540Z,445.2
2023-02-14T03:19:30.750Z,445.2
2023-02-14T03:20:33.254Z,445.2
2023-02-14T03:21:35.218Z,444.9
2023-02-14T03:22:37.711Z,445
2023-02-14T03:23:40.297Z,444.6
2023-02-14T03:24:42.802Z,444.4
2023-02-14T03:25:44.729Z,443.9
2023-02-14T03:26:46.976Z,443.5
2023-02-14T03:27:49.181Z,443.6
2023-02-14T03:28:51.698Z,443.7
2023-02-14T03:29:54.558Z,443.7
2023-02-14T03:30:58.055Z,444
2023-02-14T03:32:01.787Z,444.5
2023-02-14T03:33:04.488Z,444.5
2023-02-14T03:34:07.036Z,444.5
2023-02-14T03:35:09.633Z,444.4
2023-02-14T03:36:12.137Z,444.5
2023-02-14T03:37:14.354Z,444.7
2023-02-14T03:38:16.591Z,444.4
2023-02-14T03:39:19.156Z,444.4
2023-02-14T03:40:21.370Z,444.3
2023-02-14T03:41:23.625Z,444.1
2023-02-14T03:42:25.836Z,444
2023-02-14T03:43:28.360Z,443.9
2023-02-14T03:44:30.294Z,444.3
2023-02-14T03:45:33.250Z,444.4
2023-02-14T03:46:35.693Z,444.6
2023-02-14T03:47:37.682Z,444.5
2023-02-14T03:48:39.975Z,444.4
2023-02-14T03:49:42.464Z,444.6
2023-02-14T03:50:44.700Z,444.3
2023-02-14T03:51:47.204Z,444.3
2023-02-14T03:52:49.707Z,444
2023-02-14T03:53:52.216Z,444.2
2023-02-14T03:54:55.009Z,444.1
2023-02-14T03:55:57.586Z,444.1
2023-02-14T03:56:59.593Z,444
2023-02-14T03:58:01.850Z,443.7
2023-02-14T03:59:04.390Z,443.8
2023-02-14T04:00:06.708Z,443.5
2023-02-14T04:01:09.229Z,442.8
2023-02-14T04:02:11.826Z,442.8
2023-02-14T04:03:14.741Z,442.8
2023-02-14T04:04:17.334Z,443.3
2023-02-14T04:05:19.851Z,443.2
2023-02-14T04:06:21.792Z,443.3
2023-02-14T04:07:24.342Z,443.2
2023-02-14T04:08:26.885Z,443.6
2023-02-14T04:09:29.102Z,444.3
2023-02-14T04:10:31.683Z,443.6
2023-02-14T04:11:33.928Z,443.4
2023-02-14T04:13:41.130Z,443.1
2023-02-14T04:14:43.075Z,443
2023-02-14T04:15:45.630Z,443.6
2023-02-14T04:16:47.880Z,443.7
2023-02-14T04:17:50.158Z,443.6
2023-02-14T04:18:52.361Z,443.6
2023-02-14T04:19:54.640Z,444.1
2023-02-14T04:20:57.456Z,444.2
2023-02-14T04:22:00.121Z,444.4
2023-02-14T04:24:07.611Z,444.6
2023-02-14T04:25:09.915Z,444.8
2023-02-14T04:26:12.513Z,443.7
2023-02-14T04:27:14.452Z,444.1
2023-02-14T04:28:16.651Z,444
2023-02-14T04:29:18.890Z,444.1
2023-02-14T04:30:21.769Z,443.8
2023-02-14T04:31:24.792Z,443.5
2023-02-14T04:32:27.800Z,443.5
2023-02-14T04:33:30.099Z,443.1
2023-02-14T04:34:32.639Z,442.7
2023-02-14T04:35:34.932Z,442.8
2023-02-14T04:36:37.150Z,443.1
2023-02-14T04:37:39.386Z,443.3
2023-02-14T04:38:41.342Z,443.4
2023-02-14T04:39:43.864Z,443.8
2023-02-14T04:40:46.395Z,443.7
2023-02-14T04:41:48.997Z,444.1
2023-02-14T04:42:51.249Z,444.2
2023-02-14T04:43:53.738Z,444.3
2023-02-14T04:44:55.992Z,444.4
2023-02-14T04:45:58.212Z,444.5
2023-02-14T04:47:00.437Z,444.5
2023-02-14T04:48:02.968Z,444.2
2023-02-14T04:49:05.217Z,444.6
2023-02-14T04:50:07.760Z,444.6
2023-02-14T04:51:10.393Z,444.4
2023-02-14T04:52:12.880Z,444.8
2023-02-14T04:53:15.101Z,444.8
2023-02-14T04:54:17.587Z,445.1
2023-02-14T04:55:19.817Z,445.2
2023-02-14T04:56:22.338Z,445.5
2023-02-14T04:57:24.938Z,444.9
2023-02-14T04:58:26.904Z,445.4
2023-02-14T04:59:29.427Z,445.4
2023-02-14T05:00:32.167Z,445.2
2023-02-14T05:01:34.700Z,445.8
2023-02-14T05:02:36.953Z,445.9
2023-02-14T05:03:39.172Z,446.3
2023-02-14T05:04:41.664Z,446
2023-02-14T05:05:44.174Z,446.3
2023-02-14T05:06:46.421Z,446.4
2023-02-14T05:07:49.060Z,446.2
2023-02-14T05:08:51.576Z,446.4
2023-02-14T05:09:53.260Z,446.8
2023-02-14T05:10:55.578Z,446.5
2023-02-14T05:11:57.993Z,446.6
2023-02-14T05:13:00.570Z,446.2
2023-02-14T05:14:02.498Z,446.1
2023-02-14T05:15:04.995Z,446.2
2023-02-14T05:16:07.785Z,445.9
2023-02-14T05:17:10.305Z,446.1
2023-02-14T05:18:12.538Z,446
2023-02-14T05:19:15.273Z,446.4
2023-02-14T05:20:17.786Z,446.6
2023-02-14T05:21:20.311Z,446.9
2023-02-14T05:22:22.857Z,446.5
2023-02-14T05:23:25.106Z,446.5
2023-02-14T05:24:27.613Z,446.5
2023-02-14T05:25:30.114Z,446.6
2023-02-14T05:26:32.604Z,446.8
2023-02-14T05:27:34.813Z,447
2023-02-14T05:28:37.402Z,447.3
2023-02-14T05:29:39.910Z,446.7
2023-02-14T05:30:43.232Z,446.6
2023-02-14T05:31:45.571Z,447
2023-02-14T05:32:47.793Z,446.7
2023-02-14T05:33:49.765Z,447.2
2023-02-14T05:34:52.012Z,447.1
2023-02-14T05:35:54.524Z,447.2
2023-02-14T05:36:56.807Z,446.5
2023-02-14T05:37:59.511Z,446.8
2023-02-14T05:39:02.004Z,446.8
2023-02-14T05:40:04.512Z,446.9
2023-02-14T05:41:07.043Z,447.3
2023-02-14T05:43:10.986Z,446.9
2023-02-14T05:44:13.570Z,446.6
2023-02-14T05:45:16.077Z,446.7
2023-02-14T05:46:18.581Z,446.6
2023-02-14T05:47:21.068Z,446.3
2023-02-14T05:48:23.571Z,446.6
2023-02-14T05:49:26.094Z,446.2
2023-02-14T05:50:28.607Z,446.6
2023-02-14T05:51:30.825Z,446.4
2023-02-14T05:52:34.149Z,446.7
2023-02-14T05:53:36.520Z,446.5
2023-02-14T05:54:39.053Z,446
2023-02-14T05:55:41.298Z,445.7
2023-02-14T05:56:43.596Z,445.8
2023-02-14T05:57:46.114Z,446
2023-02-14T05:58:48.613Z,446.2
2023-02-14T05:59:51.244Z,445.8
2023-02-14T06:00:53.198Z,445.7
2023-02-14T06:01:55.803Z,445.9
2023-02-14T06:02:57.747Z,446
2023-02-14T06:04:00.155Z,445.8
2023-02-14T06:05:02.797Z,445.5
2023-02-14T06:06:05.292Z,445.2
2023-02-14T06:07:07.532Z,445.3
2023-02-14T06:08:10.029Z,445.4
2023-02-14T06:09:12.662Z,445.2
2023-02-14T06:10:15.159Z,445.2
2023-02-14T06:11:17.670Z,445.2
2023-02-14T06:12:19.901Z,445.6
2023-02-14T06:13:22.435Z,445.6
2023-02-14T06:14:24.673Z,445.3
2023-02-14T06:15:27.279Z,445.4
2023-02-14T06:16:29.786Z,445.3
2023-02-14T06:17:32.351Z,445.2
2023-02-14T06:18:34.872Z,445.5
2023-02-14T06:19:37.360Z,445.7
2023-02-14T06:20:39.930Z,445.7
2023-02-14T06:21:42.443Z,445.9
2023-02-14T06:22:44.938Z,445.9
2023-02-14T06:23:47.516Z,445.9
2023-02-14T06:24:49.774Z,445.9
2023-02-14T06:25:52.268Z,446
2023-02-14T06:26:54.790Z,446
2023-02-14T06:27:57.329Z,445.5
2023-02-14T06:28:59.330Z,445.2
2023-02-14T06:30:02.272Z,445.4
2023-02-14T06:31:06.725Z,445.2
2023-02-14T06:32:10.342Z,445.3
2023-02-14T06:33:12.665Z,445.5
2023-02-14T06:35:20.174Z,445.6
2023-02-14T06:36:22.443Z,445.9
2023-02-14T06:37:24.949Z,445.7
2023-02-14T06:38:27.191Z,445.2
2023-02-14T06:39:29.698Z,445.3
2023-02-14T06:40:32.327Z,445
2023-02-14T06:41:34.550Z,444.9
2023-02-14T06:42:37.053Z,444
2023-02-14T06:43:39.391Z,444
2023-02-14T06:44:41.906Z,443.9
2023-02-14T06:45:44.313Z,444.2
2023-02-14T06:46:46.969Z,444.7
2023-02-14T06:47:49.190Z,444.4
2023-02-14T06:48:51.432Z,444.2
2023-02-14T06:49:53.951Z,444.2
2023-02-14T06:50:55.922Z,444
2023-02-14T06:51:57.876Z,444.1
2023-02-14T06:53:00.191Z,444.2
2023-02-14T06:54:02.792Z,444.3
2023-02-14T06:55:05.328Z,444.6
2023-02-14T06:56:07.900Z,444.3
2023-02-14T06:57:10.423Z,444.8
2023-02-14T06:58:12.670Z,444.4
2023-02-14T06:59:14.916Z,444.9
2023-02-14T07:00:16.906Z,444.8
2023-02-14T07:01:19.746Z,444.1
2023-02-14T07:02:26.357Z,445.1
2023-02-14T07:03:28.656Z,445.4
2023-02-14T07:04:30.927Z,445.1
2023-02-14T07:05:33.158Z,445.3
2023-02-14T07:06:35.374Z,445.4
2023-02-14T07:07:37.607Z,445.2
2023-02-14T07:08:39.555Z,445
2023-02-14T07:09:41.803Z,444.4
2023-02-14T07:10:43.742Z,444.6
2023-02-14T07:11:46.340Z,444.4
2023-02-14T07:12:48.834Z,444.7
2023-02-14T07:13:51.679Z,444.3
2023-02-14T07:14:54.223Z,444.5
2023-02-14T07:15:57.209Z,444.8
2023-02-14T07:16:59.526Z,445
2023-02-14T07:18:02.255Z,444.9
2023-02-14T07:19:04.766Z,445.1
2023-02-14T07:20:07.004Z,444.9
2023-02-14T07:21:09.517Z,445.1
2023-02-14T07:22:11.563Z,445
2023-02-14T07:23:14.091Z,445.2
2023-02-14T07:24:16.346Z,445.5
2023-02-14T07:25:18.864Z,445.6
2023-02-14T07:26:21.105Z,445.6
2023-02-14T07:27:23.771Z,445.2
2023-02-14T07:28:26.312Z,445.4
2023-02-14T07:29:28.584Z,445.4
2023-02-14T07:30:31.487Z,445.2
2023-02-14T07:31:34.644Z,444.4
2023-02-14T07:32:37.226Z,445.3
2023-02-14T07:33:39.831Z,445.2
2023-02-14T07:34:41.794Z,445
2023-02-14T07:35:44.042Z,445.1
2023-02-14T07:36:46.257Z,445.7
2023-02-14T07:37:48.762Z,445.7
2023-02-14T07:38:50.994Z,445.4
2023-02-14T07:39:53.264Z,445.4
2023-02-14T07:40:55.015Z,445.4
2023-02-14T07:41:56.973Z,445.9
2023-02-14T07:42:59.271Z,445.6
2023-02-14T07:44:01.500Z,445.6
2023-02-14T07:46:09.281Z,446
2023-02-14T07:47:11.817Z,446
2023-02-14T07:48:13.793Z,446.3
2023-02-14T07:49:16.382Z,446.3
2023-02-14T07:50:18.634Z,445.9
2023-02-14T07:51:21.149Z,446.5
2023-02-14T07:52:23.658Z,446.6
2023-02-14T07:53:25.625Z,446.4
2023-02-14T07:54:27.590Z,446.8
2023-02-14T07:55:30.158Z,446.6
2023-02-14T07:56:32.406Z,446.6
2023-02-14T07:57:34.672Z,446.7
2023-02-14T07:58:36.960Z,447
2023-02-14T07:59:39.474Z,447
2023-02-14T08:00:41.696Z,447.2
2023-02-14T08:01:44.283Z,447.4
2023-02-14T08:02:46.300Z,447.6
2023-02-14T08:03:48.870Z,447.9
2023-02-14T08:04:51.818Z,447.9
2023-02-14T08:05:54.157Z,447.7
2023-02-14T08:06:56.418Z,447.4
2023-02-14T08:07:58.800Z,447.3
2023-02-14T08:09:01.345Z,447.3
2023-02-14T08:10:03.618Z,447.2
2023-02-14T08:11:06.126Z,447.3
2023-02-14T08:12:08.348Z,447.5
2023-02-14T08:13:10.870Z,447.6
2023-02-14T08:14:13.216Z,447.9
2023-02-14T08:15:15.739Z,447.6
2023-02-14T08:16:18.237Z,447.8
2023-02-14T08:17:20.875Z,447.9
2023-02-14T08:18:22.835Z,448
2023-02-14T08:19:25.354Z,448.2
2023-02-14T08:20:28.209Z,448.1
2023-02-14T08:21:30.444Z,448.4
2023-02-14T08:22:32.938Z,448.2
2023-02-14T08:23:35.473Z,448.5
2023-02-14T08:24:38.001Z,448.5
2023-02-14T08:25:40.542Z,449.1
2023-02-14T08:26:42.775Z,448.7
2023-02-14T08:27:45.306Z,448.6
2023-02-14T08:28:47.547Z,448.9
2023-02-14T08:29:50.115Z,448.7
2023-02-14T08:30:53.117Z,448.7
2023-02-14T08:31:56.544Z,448.3
2023-02-14T08:32:59.118Z,448.6
2023-02-14T08:34:01.672Z,448.8
2023-02-14T08:35:04.236Z,448.2
2023-02-14T08:36:06.907Z,448
2023-02-14T08:37:09.144Z,448.2
2023-02-14T08:38:11.406Z,448.2
2023-02-14T08:39:13.886Z,447.9
2023-02-14T08:40:16.173Z,447.9
2023-02-14T08:41:18.719Z,447.9
2023-02-14T08:42:21.251Z,447.8
2023-02-14T08:43:23.489Z,448.2
2023-02-14T08:44:25.845Z,447.7
2023-02-14T08:45:27.972Z,447.9
2023-02-14T08:46:30.568Z,447.8
2023-02-14T08:47:32.840Z,448.1
2023-02-14T08:49:41.921Z,448.2
2023-02-14T08:50:44.593Z,448.1
2023-02-14T08:51:46.942Z,448.2
2023-02-14T08:52:49.485Z,448.3
2023-02-14T08:53:52.106Z,448.3
2023-02-14T08:54:53.559Z,447.8
2023-02-14T08:55:56.174Z,448.1
2023-02-14T08:56:58.397Z,447.7
2023-02-14T08:58:00.685Z,447.8
2023-02-14T08:59:03.360Z,447.9
2023-02-14T09:00:05.963Z,447.5
2023-02-14T09:01:09.077Z,447.3
2023-02-14T09:02:11.682Z,447.3
2023-02-14T09:03:14.011Z,447.1
2023-02-14T09:04:16.714Z,447
2023-02-14T09:05:19.317Z,446.5
2023-02-14T09:06:22.006Z,446.6
2023-02-14T09:07:24.670Z,446.9
2023-02-14T09:08:27.614Z,446.7
2023-02-14T09:09:30.226Z,446.6
2023-02-14T09:10:32.948Z,446.9
2023-02-14T09:11:35.108Z,446.5
2023-02-14T09:12:37.668Z,446.2
2023-02-14T09:13:40.268Z,446.2
2023-02-14T09:14:42.887Z,446.5
2023-02-14T09:15:45.071Z,446.5
2023-02-14T09:16:48.189Z,446.3
2023-02-14T09:17:50.636Z,446.5
2023-02-14T09:18:53.288Z,446.2
2023-02-14T09:19:55.713Z,446.3
2023-02-14T09:20:59.910Z,446.2
2023-02-14T09:22:02.797Z,446.3
2023-02-14T09:23:04.870Z,445.7
2023-02-14T09:24:06.537Z,446.2
2023-02-14T09:25:09.057Z,446.3
2023-02-14T09:26:11.662Z,446.2
2023-02-14T09:27:14.173Z,446.4
2023-02-14T09:28:16.670Z,446.5
2023-02-14T09:29:18.924Z,446.4
2023-02-14T09:30:21.317Z,446.7
2023-02-14T09:31:24.164Z,446.6
2023-02-14T09:32:27.378Z,446.9
2023-02-14T09:33:29.662Z,447.2
2023-02-14T09:34:31.601Z,446.8
2023-02-14T09:35:33.872Z,447
2023-02-14T09:36:36.434Z,446.8
2023-02-14T09:37:38.956Z,447
2023-02-14T09:38:41.591Z,447.3
2023-02-14T09:39:44.108Z,447.1
2023-02-14T09:40:46.328Z,447.4
2023-02-14T09:41:48.565Z,447.6
2023-02-14T09:42:51.081Z,447.8
2023-02-14T09:43:53.343Z,447.5
2023-02-14T09:44:55.848Z,447.8
2023-02-14T09:45:58.761Z,447.9
2023-02-14T09:47:01.300Z,448
2023-02-14T09:48:03.396Z,447.3
2023-02-14T09:49:06.223Z,447.9
2023-02-14T09:50:09.113Z,447.6
2023-02-14T09:51:11.680Z,447.9
2023-02-14T09:53:20.305Z,447.4
2023-02-14T09:54:22.977Z,447.9
2023-02-14T09:55:25.308Z,448.1
2023-02-14T09:56:27.557Z,448.1
2023-02-14T09:57:30.158Z,448.3
2023-02-14T09:58:32.315Z,448.4
2023-02-14T09:59:34.556Z,448.1
2023-02-14T10:00:36.499Z,448.2
2023-02-14T10:01:39.332Z,447.7
2023-02-14T10:02:42.049Z,448
2023-02-14T10:03:44.440Z,448.4
2023-02-14T10:04:46.944Z,448.5
2023-02-14T10:05:49.444Z,448.2
2023-02-14T10:06:51.982Z,448.3
2023-02-14T10:07:54.192Z,448.1
2023-02-14T10:08:56.453Z,448.1
2023-02-14T10:09:59.078Z,448.1
2023-02-14T10:11:02.485Z,447.9
2023-02-14T10:12:05.043Z,447.6
2023-02-14T10:13:07.273Z,448
2023-02-14T10:14:09.769Z,447.9
2023-02-14T10:15:12.266Z,447.8
2023-02-14T10:16:14.730Z,447.8
2023-02-14T10:17:17.079Z,447.9
2023-02-14T10:18:19.018Z,447.8
2023-02-14T10:19:21.099Z,448.1
2023-02-14T10:20:23.802Z,448.1
2023-02-14T10:21:26.364Z,448.3
2023-02-14T10:22:28.862Z,448.5
2023-02-14T10:23:31.109Z,448.1
2023-02-14T10:24:33.052Z,448.6
2023-02-14T10:25:35.646Z,448.6
2023-02-14T10:26:37.880Z,448.6
2023-02-14T10:27:40.530Z,449.2
2023-02-14T10:28:42.755Z,449.3
2023-02-14T10:29:45.283Z,449.4
2023-02-14T10:30:48.683Z,449.6
2023-02-14T10:31:51.569Z,449.1
2023-02-14T10:32:54.118Z,449.5
2023-02-14T10:35:01.637Z,449.6
2023-02-14T10:36:04.176Z,449.6
2023-02-14T10:37:06.128Z,449.9
2023-02-14T10:38:08.364Z,450.2
2023-02-14T10:39:10.596Z,450.1
2023-02-14T10:40:12.815Z,450.3
2023-02-14T10:41:15.071Z,450.2
2023-02-14T10:42:17.843Z,450.7
2023-02-14T10:43:20.662Z,450.7
2023-02-14T10:44:22.924Z,450.8
2023-02-14T10:45:25.674Z,450.8
2023-02-14T10:46:28.396Z,450.7
2023-02-14T10:47:30.631Z,450.8
2023-02-14T10:48:33.176Z,451.1
2023-02-14T10:49:35.423Z,451.4
2023-02-14T10:50:37.937Z,451.6
2023-02-14T10:51:40.449Z,451.4
2023-02-14T10:52:42.751Z,451.4
2023-02-14T10:53:45.321Z,451.3
2023-02-14T10:54:47.596Z,451.4
2023-02-14T10:55:50.107Z,451.3
2023-02-14T10:56:52.654Z,451.5
2023-02-14T10:57:55.163Z,451.9
2023-02-14T10:58:57.860Z,451.7
2023-02-14T11:00:00.634Z,452
2023-02-14T11:01:04.932Z,452.4
2023-02-14T11:02:07.527Z,452.1
2023-02-14T11:03:10.543Z,452.2
2023-02-14T11:04:12.542Z,452.5
2023-02-14T11:05:15.070Z,452.4
2023-02-14T11:06:17.354Z,452.9
2023-02-14T11:07:20.052Z,453
2023-02-14T11:08:22.729Z,453
2023-02-14T11:09:25.077Z,453.1
2023-02-14T11:10:27.401Z,453
2023-02-14T11:11:29.924Z,453.4
2023-02-14T11:12:32.162Z,453.5
2023-02-14T11:13:34.707Z,453.3
2023-02-14T11:14:37.088Z,453.6
2023-02-14T11:15:39.593Z,453.9
2023-02-14T11:16:42.104Z,454
2023-02-14T11:17:44.661Z,454.5
2023-02-14T11:18:46.911Z,454.2
2023-02-14T11:19:49.406Z,454.8
2023-02-14T11:20:51.924Z,455.1
2023-02-14T11:21:54.417Z,455
2023-02-14T11:22:56.648Z,454.9
2023-02-14T11:23:59.146Z,454.9
2023-02-14T11:25:05.101Z,455.1
2023-02-14T11:26:07.619Z,455.2
2023-02-14T11:27:09.829Z,455.3
2023-02-14T11:28:12.049Z,455.2
2023-02-14T11:29:14.316Z,455
2023-02-14T11:30:17.191Z,455.4
2023-02-14T11:31:20.272Z,455.5
2023-02-14T11:32:22.527Z,455.8
2023-02-14T11:33:24.760Z,455.9
2023-02-14T11:34:27.372Z,456.2
2023-02-14T11:35:29.595Z,456.3
2023-02-14T11:36:32.108Z,456.7
2023-02-14T11:37:34.340Z,456.8
2023-02-14T11:38:36.376Z,457.1
2023-02-14T11:39:38.350Z,457.2
2023-02-14T11:40:40.612Z,457.1
2023-02-14T11:41:42.833Z,457.1
2023-02-14T11:42:44.806Z,457.5
2023-02-14T11:43:47.894Z,457.8
2023-02-14T11:44:50.396Z,458.2
2023-02-14T11:45:52.948Z,457.9
2023-02-14T11:46:56.185Z,457.7
2023-02-14T11:47:58.434Z,457.7
2023-02-14T11:49:00.663Z,458
2023-02-14T11:50:03.346Z,458.2
2023-02-14T11:51:05.873Z,458.1
2023-02-14T11:52:11.339Z,458.3
2023-02-14T11:53:13.558Z,459
2023-02-14T11:54:16.451Z,458.7
2023-02-14T11:55:18.673Z,458.7
2023-02-14T11:56:20.914Z,458.9
2023-02-14T11:57:23.129Z,458.9
2023-02-14T11:58:25.632Z,459.1
2023-02-14T11:59:28.152Z,458.9
2023-02-14T12:00:30.684Z,458.5
2023-02-14T12:01:33.345Z,459.1
2023-02-14T12:02:35.761Z,459.4
2023-02-14T12:03:38.615Z,459.4
2023-02-14T12:05:46.123Z,459.4
2023-02-14T12:06:48.664Z,459.5
2023-02-14T12:07:50.912Z,459.7
2023-02-14T12:08:53.124Z,459.3
2023-02-14T12:09:55.329Z,459.3
2023-02-14T12:10:58.437Z,459.7
2023-02-14T12:12:01.128Z,459.5
2023-02-14T12:13:03.657Z,459.7
2023-02-14T12:14:06.204Z,460.2
2023-02-14T12:15:08.709Z,459.9
2023-02-14T12:16:11.592Z,459.8
2023-02-14T12:17:14.248Z,460
2023-02-14T12:18:16.761Z,460
2023-02-14T12:19:19.335Z,460.1
2023-02-14T12:20:21.840Z,460.3
2023-02-14T12:21:24.122Z,460.6
2023-02-14T12:22:29.710Z,460.3
2023-02-14T12:23:32.226Z,460.4
2023-02-14T12:24:34.804Z,460.6
2023-02-14T12:25:37.238Z,461
2023-02-14T12:26:39.968Z,460.8
2023-02-14T12:27:42.519Z,461.6
2023-02-14T12:28:44.762Z,461.2
2023-02-14T12:29:47.261Z,461.4
2023-02-14T12:30:50.261Z,461.7
2023-02-14T12:31:53.442Z,461.4
2023-02-14T12:32:56.129Z,461.5
2023-02-14T12:33:58.658Z,461.6
2023-02-14T12:35:01.157Z,461.7
2023-02-14T12:36:03.909Z,461.8
2023-02-14T12:37:06.449Z,462
2023-02-14T12:38:09.018Z,461.9
2023-02-14T12:39:11.543Z,462.5
2023-02-14T12:40:14.081Z,462.6
2023-02-14T12:41:16.644Z,462.6
2023-02-14T12:42:19.173Z,462.6
2023-02-14T12:43:21.403Z,463.2
2023-02-14T12:44:23.639Z,463
2023-02-14T12:45:26.156Z,463.1
2023-02-14T12:46:29.494Z,463
2023-02-14T12:47:31.890Z,462.8
2023-02-14T12:48:34.645Z,462.8
2023-02-14T12:49:37.166Z,462.9
2023-02-14T12:50:39.702Z,463.3
2023-02-14T12:51:41.910Z,463.1
2023-02-14T12:52:44.174Z,463.2
2023-02-14T12:54:53.080Z,463.4
2023-02-14T12:55:55.595Z,463.6
2023-02-14T12:56:57.660Z,463.8
2023-02-14T12:58:00.172Z,463.8
2023-02-14T12:59:02.694Z,463.7
2023-02-14T13:00:04.968Z,463.6
2023-02-14T13:01:07.542Z,463.7
2023-02-14T13:02:10.218Z,463.9
2023-02-14T13:03:12.902Z,464.1
2023-02-14T13:04:15.626Z,463.7
2023-02-14T13:05:17.563Z,464.2
2023-02-14T13:06:20.134Z,464
2023-02-14T13:07:22.110Z,463.9
2023-02-14T13:08:25.043Z,464.1
2023-02-14T13:09:27.654Z,464.3
2023-02-14T13:10:31.261Z,464.3
2023-02-14T13:11:34.405Z,464.7
2023-02-14T13:12:37.736Z,464.8
2023-02-14T13:13:40.392Z,464.9
2023-02-14T13:14:42.958Z,465
2023-02-14T13:15:45.563Z,465
2023-02-14T13:16:48.076Z,465.3
2023-02-14T13:17:50.595Z,465.6
2023-02-14T13:18:53.116Z,465.6
2023-02-14T13:19:55.769Z,465.7
2023-02-14T13:20:59.016Z,465.9
2023-02-14T13:22:01.985Z,465.8
2023-02-14T13:23:04.507Z,466.1
2023-02-14T13:24:06.750Z,465.8
2023-02-14T13:25:08.963Z,466.2
2023-02-14T13:26:11.530Z,466.2
2023-02-14T13:27:13.827Z,466.4
2023-02-14T13:28:16.324Z,466
2023-02-14T13:29:18.818Z,466.5
2023-02-14T13:30:21.682Z,466.7
2023-02-14T13:31:24.884Z,466.5
2023-02-14T13:32:28.318Z,466.7
2023-02-14T13:34:36.276Z,466.8
2023-02-14T13:35:38.689Z,466.9
2023-02-14T13:36:41.235Z,467.1
2023-02-14T13:37:43.785Z,467.4
2023-02-14T13:38:46.048Z,467.3
2023-02-14T13:39:48.559Z,467.4
2023-02-14T13:40:50.770Z,467.2
2023-02-14T13:41:53.000Z,467.3
2023-02-14T13:42:55.277Z,467.2